Fort Saskatchewan, Canada
Current Conditions -  °F | °C
As of 6:00 AM on Thursday 23 Oct 2014 (Local Time) from CYED Reporting Station
Clear Clear  
Wind Chill: 36°   Ceiling: Unl
Heat Index: 36°   Visibility: 9mi
Dew Point: 30°   Wind: 3mph
Humidity: 81%   Direction: 170°S
Pressure: 29.43"   Gusts: NA
Location:  53.71°N, 113.21°W
Report Text: CYED 231200Z AUTO 17003KT 9SM CLR 02/M01 A2943 RMK SLP982
Loading
Personal Weather Stations






























Interactive Weather Map
Tropical Storm Tracking
New forecast layout! Learn more

10-Day Weather Forecast

Advertisements
Track Severe Weather on mobile